sensor_id;sensor_type;location;lat;lon;timestamp;pressure;altitude;pressure_sealevel;temperature;humidity
71057;BME280;58380;48.312;9.246;2023-02-13T07:23:59;95308.91;;;-2.39;100.00
71057;BME280;58380;48.312;9.246;2023-02-13T07:26:25;95302.75;;;-2.38;100.00
71057;BME280;58380;48.312;9.246;2023-02-13T07:28:51;95323.44;;;-2.28;100.00
71057;BME280;58380;48.312;9.246;2023-02-13T07:31:18;95349.44;;;-2.10;100.00
71057;BME280;58380;48.312;9.246;2023-02-13T07:33:47;95301.25;;;-2.40;100.00
71057;BME280;58380;48.312;9.246;2023-02-13T07:36:13;95362.38;;;-2.00;100.00
71057;BME280;58380;48.312;9.246;2023-02-13T07:38:39;95340.19;;;-2.12;100.00
71057;BME280;58380;48.312;9.246;2023-02-13T07:41:04;95328.22;;;-2.13;100.00
71057;BME280;58380;48.312;9.246;2023-02-13T07:43:30;95337.59;;;-2.03;100.00
71057;BME280;58380;48.312;9.246;2023-02-13T07:46:02;95324.41;;;-2.09;100.00
71057;BME280;58380;48.312;9.246;2023-02-13T07:48:28;95367.66;;;-1.82;100.00
71057;BME280;58380;48.312;9.246;2023-02-13T07:50:59;95382.94;;;-1.79;100.00
71057;BME280;58380;48.312;9.246;2023-02-13T07:53:26;95363.84;;;-1.78;100.00
71057;BME280;58380;48.312;9.246;2023-02-13T07:55:52;95361.66;;;-1.73;100.00
71057;BME280;58380;48.312;9.246;2023-02-13T07:58:17;95378.38;;;-1.67;100.00
71057;BME280;58380;48.312;9.246;2023-02-13T08:00:43;95362.72;;;-1.66;100.00
71057;BME280;58380;48.312;9.246;2023-02-13T08:03:08;95360.41;;;-1.59;100.00
71057;BME280;58380;48.312;9.246;2023-02-13T08:05:34;95370.88;;;-1.51;100.00
71057;BME280;58380;48.312;9.246;2023-02-13T08:08:00;95356.84;;;-1.58;100.00
71057;BME280;58380;48.312;9.246;2023-02-13T08:10:26;95345.97;;;-1.62;100.00
71057;BME280;58380;48.312;9.246;2023-02-13T08:13:11;95368.28;;;-1.51;100.00
71057;BME280;58380;48.312;9.246;2023-02-13T08:15:38;95380.66;;;-1.45;100.00
71057;BME280;58380;48.312;9.246;2023-02-13T08:18:04;95355.78;;;-1.65;100.00
71057;BME280;58380;48.312;9.246;2023-02-13T08:20:30;95362.72;;;-1.56;100.00
71057;BME280;58380;48.312;9.246;2023-02-13T08:23:02;95347.31;;;-1.58;100.00
71057;BME280;58380;48.312;9.246;2023-02-13T08:25:29;95378.50;;;-1.40;100.00
71057;BME280;58380;48.312;9.246;2023-02-13T08:27:57;95346.88;;;-1.53;100.00
71057;BME280;58380;48.312;9.246;2023-02-13T08:30:23;95319.81;;;-1.68;100.00
71057;BME280;58380;48.312;9.246;2023-02-13T08:32:49;95345.50;;;-1.47;100.00
71057;BME280;58380;48.312;9.246;2023-02-13T08:35:14;95373.00;;;-1.27;100.00
71057;BME280;58380;48.312;9.246;2023-02-13T08:37:39;95375.28;;;-1.24;100.00
71057;BME280;58380;48.312;9.246;2023-02-13T08:40:05;95377.47;;;-1.19;100.00
71057;BME280;58380;48.312;9.246;2023-02-13T08:42:35;95372.53;;;-1.22;100.00
71057;BME280;58380;48.312;9.246;2023-02-13T08:45:00;95377.03;;;-1.15;100.00
71057;BME280;58380;48.312;9.246;2023-02-13T08:47:26;95346.44;;;-1.39;100.00
71057;BME280;58380;48.312;9.246;2023-02-13T08:49:52;95349.69;;;-1.27;100.00
71057;BME280;58380;48.312;9.246;2023-02-13T08:52:18;95380.94;;;-1.01;100.00
71057;BME280;58380;48.312;9.246;2023-02-13T08:54:43;95376.94;;;-0.95;100.00
71057;BME280;58380;48.312;9.246;2023-02-13T08:57:09;95384.84;;;-0.87;100.00
71057;BME280;58380;48.312;9.246;2023-02-13T08:59:34;95356.06;;;-0.94;100.00
71057;BME280;58380;48.312;9.246;2023-02-13T09:01:59;95334.56;;;-1.04;100.00
71057;BME280;58380;48.312;9.246;2023-02-13T09:04:25;95347.56;;;-0.86;100.00
71057;BME280;58380;48.312;9.246;2023-02-13T09:06:50;95376.22;;;-0.60;100.00
71057;BME280;58380;48.312;9.246;2023-02-13T09:09:16;95358.63;;;-0.66;100.00
71057;BME280;58380;48.312;9.246;2023-02-13T09:11:41;95364.06;;;-0.59;100.00
71057;BME280;58380;48.312;9.246;2023-02-13T09:14:06;95336.09;;;-0.83;100.00
71057;BME280;58380;48.312;9.246;2023-02-13T09:16:32;95353.69;;;-0.77;100.00
71057;BME280;58380;48.312;9.246;2023-02-13T09:18:57;95358.50;;;-0.64;100.00
71057;BME280;58380;48.312;9.246;2023-02-13T09:21:23;95334.25;;;-0.73;100.00
71057;BME280;58380;48.312;9.246;2023-02-13T09:23:49;95343.41;;;-0.51;100.00
71057;BME280;58380;48.312;9.246;2023-02-13T09:26:16;95363.28;;;-0.42;100.00
71057;BME280;58380;48.312;9.246;2023-02-13T09:28:43;95347.16;;;-0.28;100.00
71057;BME280;58380;48.312;9.246;2023-02-13T09:31:14;95335.47;;;-0.32;100.00
71057;BME280;58380;48.312;9.246;2023-02-13T09:33:45;95336.66;;;-0.26;100.00
71057;BME280;58380;48.312;9.246;2023-02-13T09:36:18;95358.81;;;-0.14;100.00
71057;BME280;58380;48.312;9.246;2023-02-13T09:38:47;95355.13;;;-0.11;100.00
71057;BME280;58380;48.312;9.246;2023-02-13T09:41:25;95340.97;;;-0.17;100.00
71057;BME280;58380;48.312;9.246;2023-02-13T09:43:59;95350.22;;;0.04;100.00
71057;BME280;58380;48.312;9.246;2023-02-13T09:46:31;95358.66;;;0.06;100.00
71057;BME280;58380;48.312;9.246;2023-02-13T09:49:05;95347.31;;;0.07;100.00
71057;BME280;58380;48.312;9.246;2023-02-13T09:51:34;95346.06;;;0.11;100.00
71057;BME280;58380;48.312;9.246;2023-02-13T09:54:06;95356.41;;;0.29;100.00
71057;BME280;58380;48.312;9.246;2023-02-13T09:56:50;95359.00;;;0.29;100.00
71057;BME280;58380;48.312;9.246;2023-02-13T09:59:57;95340.28;;;0.43;100.00
71057;BME280;58380;48.312;9.246;2023-02-13T10:05:41;95363.75;;;0.59;100.00
71057;BME280;58380;48.312;9.246;2023-02-13T10:08:30;95362.97;;;0.67;100.00
71057;BME280;58380;48.312;9.246;2023-02-13T10:11:11;95363.06;;;0.57;100.00
71057;BME280;58380;48.312;9.246;2023-02-13T10:14:01;95362.72;;;0.52;100.00
71057;BME280;58380;48.312;9.246;2023-02-13T10:16:50;95326.22;;;0.28;100.00
71057;BME280;58380;48.312;9.246;2023-02-13T10:19:27;95358.34;;;0.27;100.00
71057;BME280;58380;48.312;9.246;2023-02-13T10:22:13;95353.66;;;0.12;100.00
71057;BME280;58380;48.312;9.246;2023-02-13T10:25:05;95364.63;;;0.24;100.00
71057;BME280;58380;48.312;9.246;2023-02-13T10:28:16;95358.53;;;0.33;100.00
71057;BME280;58380;48.312;9.246;2023-02-13T10:30:55;95342.19;;;0.41;100.00
71057;BME280;58380;48.312;9.246;2023-02-13T10:33:33;95362.63;;;0.62;100.00
71057;BME280;58380;48.312;9.246;2023-02-13T10:36:17;95349.22;;;0.49;100.00
71057;BME280;58380;48.312;9.246;2023-02-13T10:38:56;95314.19;;;0.27;100.00
71057;BME280;58380;48.312;9.246;2023-02-13T10:50:27;95360.16;;;0.86;100.00
71057;BME280;58380;48.312;9.246;2023-02-13T11:02:21;95344.06;;;0.57;100.00
71057;BME280;58380;48.312;9.246;2023-02-13T11:05:00;95327.72;;;0.38;100.00
71057;BME280;58380;48.312;9.246;2023-02-13T11:07:40;95332.38;;;0.53;100.00
71057;BME280;58380;48.312;9.246;2023-02-13T11:10:14;95340.56;;;0.66;100.00
71057;BME280;58380;48.312;9.246;2023-02-13T11:12:43;95344.19;;;0.73;100.00
71057;BME280;58380;48.312;9.246;2023-02-13T11:15:24;95339.69;;;0.92;100.00
71057;BME280;58380;48.312;9.246;2023-02-13T11:17:58;95344.47;;;1.04;100.00
71057;BME280;58380;48.312;9.246;2023-02-13T11:20:37;95335.59;;;1.15;100.00
71057;BME280;58380;48.312;9.246;2023-02-13T11:23:35;95337.69;;;1.20;100.00
71057;BME280;58380;48.312;9.246;2023-02-13T11:26:07;95337.69;;;1.20;100.00
71057;BME280;58380;48.312;9.246;2023-02-13T11:28:43;95338.56;;;1.37;100.00
71057;BME280;58380;48.312;9.246;2023-02-13T11:31:28;95333.53;;;1.35;100.00
71057;BME280;58380;48.312;9.246;2023-02-13T11:33:58;95311.41;;;1.31;100.00
71057;BME280;58380;48.312;9.246;2023-02-13T11:36:41;95317.63;;;1.55;100.00
71057;BME280;58380;48.312;9.246;2023-02-13T11:39:17;95330.81;;;1.61;100.00
71057;BME280;58380;48.312;9.246;2023-02-13T11:41:46;95317.13;;;1.43;100.00
71057;BME280;58380;48.312;9.246;2023-02-13T11:44:25;95316.78;;;1.38;100.00
71057;BME280;58380;48.312;9.246;2023-02-13T11:46:55;95285.34;;;1.15;100.00
71057;BME280;58380;48.312;9.246;2023-02-13T11:49:46;95319.06;;;1.41;100.00
71057;BME280;58380;48.312;9.246;2023-02-13T11:52:27;95319.88;;;1.49;100.00
71057;BME280;58380;48.312;9.246;2023-02-13T11:55:33;95315.19;;;1.53;100.00
71057;BME280;58380;48.312;9.246;2023-02-13T12:00:45;95269.13;;;1.37;100.00
71057;BME280;58380;48.312;9.246;2023-02-13T12:06:00;95320.25;;;1.63;100.00
71057;BME280;58380;48.312;9.246;2023-02-13T12:08:33;95332.28;;;1.64;100.00
71057;BME280;58380;48.312;9.246;2023-02-13T12:11:13;95326.75;;;1.59;100.00
71057;BME280;58380;48.312;9.246;2023-02-13T12:13:48;95299.06;;;1.49;100.00
71057;BME280;58380;48.312;9.246;2023-02-13T12:16:29;95334.06;;;1.80;100.00
71057;BME280;58380;48.312;9.246;2023-02-13T12:19:04;95316.03;;;1.70;100.00
71057;BME280;58380;48.312;9.246;2023-02-13T12:27:17;95302.19;;;1.69;100.00
71057;BME280;58380;48.312;9.246;2023-02-13T12:36:15;95286.22;;;1.64;100.00
71057;BME280;58380;48.312;9.246;2023-02-13T12:38:49;95317.50;;;1.81;100.00
71057;BME280;58380;48.312;9.246;2023-02-13T12:41:49;95318.16;;;1.83;100.00
71057;BME280;58380;48.312;9.246;2023-02-13T12:44:52;95318.31;;;1.65;100.00
71057;BME280;58380;48.312;9.246;2023-02-13T12:50:45;95309.19;;;1.69;100.00
71057;BME280;58380;48.312;9.246;2023-02-13T12:53:54;95307.72;;;1.75;100.00
71057;BME280;58380;48.312;9.246;2023-02-13T13:08:26;95301.88;;;2.05;99.19
71057;BME280;58380;48.312;9.246;2023-02-13T13:14:15;95300.91;;;1.98;99.15
71057;BME280;58380;48.312;9.246;2023-02-13T13:17:10;95263.97;;;1.70;99.82
71057;BME280;58380;48.312;9.246;2023-02-13T13:19:59;95276.47;;;1.75;100.00
71057;BME280;58380;48.312;9.246;2023-02-13T13:22:43;95290.66;;;1.80;100.00
71057;BME280;58380;48.312;9.246;2023-02-13T13:25:26;95292.28;;;1.81;100.00
71057;BME280;58380;48.312;9.246;2023-02-13T13:28:11;95288.84;;;1.81;100.00
71057;BME280;58380;48.312;9.246;2023-02-13T13:30:42;95222.13;;;1.47;100.00
71057;BME280;58380;48.312;9.246;2023-02-13T13:33:15;95285.63;;;1.95;100.00
71057;BME280;58380;48.312;9.246;2023-02-13T13:50:27;95277.94;;;2.10;100.00
71057;BME280;58380;48.312;9.246;2023-02-13T13:58:54;95276.13;;;2.19;99.95
71057;BME280;58380;48.312;9.246;2023-02-13T14:01:28;95286.72;;;2.25;100.00
71057;BME280;58380;48.312;9.246;2023-02-13T14:03:59;95292.91;;;2.16;100.00
71057;BME280;58380;48.312;9.246;2023-02-13T14:11:53;95288.66;;;2.31;100.00
71057;BME280;58380;48.312;9.246;2023-02-13T14:16:56;95275.81;;;1.97;100.00
71057;BME280;58380;48.312;9.246;2023-02-13T14:24:52;95262.19;;;1.62;100.00
71057;BME280;58380;48.312;9.246;2023-02-13T14:27:30;95240.06;;;1.50;100.00
71057;BME280;58380;48.312;9.246;2023-02-13T14:30:02;95303.69;;;1.80;100.00
71057;BME280;58380;48.312;9.246;2023-02-13T14:32:32;95280.06;;;1.65;100.00
71057;BME280;58380;48.312;9.246;2023-02-13T14:35:15;95278.59;;;1.63;100.00
71057;BME280;58380;48.312;9.246;2023-02-13T14:37:52;95290.81;;;1.70;100.00
71057;BME280;58380;48.312;9.246;2023-02-13T14:43:00;95295.84;;;1.56;100.00
71057;BME280;58380;48.312;9.246;2023-02-13T14:45:57;95289.59;;;1.32;100.00
71057;BME280;58380;48.312;9.246;2023-02-13T14:48:35;95284.38;;;1.24;100.00
71057;BME280;58380;48.312;9.246;2023-02-13T14:51:04;95281.78;;;1.16;100.00
71057;BME280;58380;48.312;9.246;2023-02-13T14:53:51;95285.53;;;1.21;100.00
71057;BME280;58380;48.312;9.246;2023-02-13T14:56:21;95268.25;;;1.12;100.00
71057;BME280;58380;48.312;9.246;2023-02-13T14:58:51;95271.03;;;1.19;100.00
71057;BME280;58380;48.312;9.246;2023-02-13T15:01:31;95291.72;;;1.28;100.00
71057;BME280;58380;48.312;9.246;2023-02-13T15:04:10;95291.25;;;1.25;100.00
71057;BME280;58380;48.312;9.246;2023-02-13T15:06:42;95291.41;;;1.32;100.00
71057;BME280;58380;48.312;9.246;2023-02-13T15:09:27;95266.84;;;1.26;100.00
71057;BME280;58380;48.312;9.246;2023-02-13T15:11:57;95289.13;;;1.37;100.00
71057;BME280;58380;48.312;9.246;2023-02-13T15:14:32;95273.84;;;1.25;100.00
71057;BME280;58380;48.312;9.246;2023-02-13T15:17:20;95270.56;;;1.23;100.00
71057;BME280;58380;48.312;9.246;2023-02-13T15:19:52;95282.59;;;1.24;100.00
71057;BME280;58380;48.312;9.246;2023-02-13T15:22:29;95269.91;;;1.05;100.00
71057;BME280;58380;48.312;9.246;2023-02-13T15:24:58;95299.78;;;1.09;100.00
71057;BME280;58380;48.312;9.246;2023-02-13T15:27:29;95285.91;;;0.92;100.00
71057;BME280;58380;48.312;9.246;2023-02-13T15:32:55;95298.56;;;0.87;100.00
71057;BME280;58380;48.312;9.246;2023-02-13T15:35:26;95291.09;;;0.84;100.00
71057;BME280;58380;48.312;9.246;2023-02-13T15:37:52;95291.25;;;0.82;100.00
71057;BME280;58380;48.312;9.246;2023-02-13T15:40:26;95296.81;;;0.88;100.00
71057;BME280;58380;48.312;9.246;2023-02-13T15:42:54;95273.53;;;0.78;100.00
71057;BME280;58380;48.312;9.246;2023-02-13T15:45:22;95274.66;;;0.75;100.00
71057;BME280;58380;48.312;9.246;2023-02-13T15:47:51;95243.16;;;0.44;100.00
71057;BME280;58380;48.312;9.246;2023-02-13T15:50:34;95259.00;;;0.67;100.00
71057;BME280;58380;48.312;9.246;2023-02-13T15:53:04;95271.53;;;0.63;100.00
71057;BME280;58380;48.312;9.246;2023-02-13T15:55:37;95277.63;;;0.54;100.00
71057;BME280;58380;48.312;9.246;2023-02-13T15:58:03;95274.34;;;0.44;100.00
71057;BME280;58380;48.312;9.246;2023-02-13T16:00:32;95280.31;;;0.36;100.00
71057;BME280;58380;48.312;9.246;2023-02-13T16:03:02;95265.00;;;0.25;100.00
71057;BME280;58380;48.312;9.246;2023-02-13T16:05:34;95234.19;;;0.04;100.00
71057;BME280;58380;48.312;9.246;2023-02-13T16:08:33;95274.81;;;0.13;100.00
71057;BME280;58380;48.312;9.246;2023-02-13T16:13:58;95263.81;;;-0.07;100.00
71057;BME280;58380;48.312;9.246;2023-02-13T16:16:31;95231.25;;;-0.27;100.00
71057;BME280;58380;48.312;9.246;2023-02-13T16:19:25;95280.44;;;0.01;100.00
71057;BME280;58380;48.312;9.246;2023-02-13T16:22:02;95267.63;;;-0.19;100.00
71057;BME280;58380;48.312;9.246;2023-02-13T16:24:31;95282.81;;;-0.06;100.00
71057;BME280;58380;48.312;9.246;2023-02-13T16:26:57;95225.88;;;-0.52;100.00
71057;BME280;58380;48.312;9.246;2023-02-13T16:29:24;95284.91;;;-0.10;100.00
71057;BME280;58380;48.312;9.246;2023-02-13T16:31:52;95251.16;;;-0.28;100.00
71057;BME280;58380;48.312;9.246;2023-02-13T16:34:29;95277.59;;;-0.06;100.00
71057;BME280;58380;48.312;9.246;2023-02-13T16:36:55;95248.44;;;-0.26;100.00
71057;BME280;58380;48.312;9.246;2023-02-13T16:39:26;95276.19;;;-0.01;100.00
71057;BME280;58380;48.312;9.246;2023-02-13T16:41:54;95280.50;;;-0.09;100.00
71057;BME280;58380;48.312;9.246;2023-02-13T16:44:24;95255.41;;;-0.27;100.00
71057;BME280;58380;48.312;9.246;2023-02-13T16:47:01;95245.47;;;-0.31;100.00
71057;BME280;58380;48.312;9.246;2023-02-13T16:49:33;95289.06;;;-0.17;100.00
71057;BME280;58380;48.312;9.246;2023-02-13T16:52:10;95291.44;;;-0.24;100.00
71057;BME280;58380;48.312;9.246;2023-02-13T17:00:02;95294.25;;;-0.53;100.00
71057;BME280;58380;48.312;9.246;2023-02-13T17:07:37;95291.59;;;-0.61;100.00
71057;BME280;58380;48.312;9.246;2023-02-13T17:12:52;95296.28;;;-0.64;100.00
71057;BME280;58380;48.312;9.246;2023-02-13T17:15:22;95297.59;;;-0.60;100.00
71057;BME280;58380;48.312;9.246;2023-02-13T17:17:49;95310.41;;;-0.59;100.00
71057;BME280;58380;48.312;9.246;2023-02-13T17:20:16;95309.16;;;-0.55;100.00
71057;BME280;58380;48.312;9.246;2023-02-13T17:22:45;95281.97;;;-0.69;100.00
71057;BME280;58380;48.312;9.246;2023-02-13T17:28:05;95264.84;;;-0.79;100.00
71057;BME280;58380;48.312;9.246;2023-02-13T17:30:36;95277.81;;;-0.61;100.00
71057;BME280;58380;48.312;9.246;2023-02-13T17:33:09;95294.78;;;-0.49;100.00
71057;BME280;58380;48.312;9.246;2023-02-13T17:35:38;95316.34;;;-0.31;100.00
71057;BME280;58380;48.312;9.246;2023-02-13T17:38:04;95304.84;;;-0.46;100.00
71057;BME280;58380;48.312;9.246;2023-02-13T17:40:31;95300.16;;;-0.43;100.00
71057;BME280;58380;48.312;9.246;2023-02-13T17:42:58;95319.19;;;-0.42;100.00
71057;BME280;58380;48.312;9.246;2023-02-13T17:45:29;95309.25;;;-0.64;100.00
71057;BME280;58380;48.312;9.246;2023-02-13T17:47:56;95320.19;;;-0.71;100.00
71057;BME280;58380;48.312;9.246;2023-02-13T17:50:26;95284.66;;;-1.06;100.00
71057;BME280;58380;48.312;9.246;2023-02-13T17:52:53;95296.56;;;-1.13;100.00
71057;BME280;58380;48.312;9.246;2023-02-13T17:55:20;95314.56;;;-1.12;100.00
71057;BME280;58380;48.312;9.246;2023-02-13T17:57:49;95300.06;;;-1.32;100.00
71057;BME280;58380;48.312;9.246;2023-02-13T18:00:17;95316.22;;;-1.20;100.00
71057;BME280;58380;48.312;9.246;2023-02-13T18:02:45;95319.78;;;-1.21;100.00
71057;BME280;58380;48.312;9.246;2023-02-13T18:05:12;95310.94;;;-1.28;100.00
71057;BME280;58380;48.312;9.246;2023-02-13T18:07:40;95287.16;;;-1.42;100.00
71057;BME280;58380;48.312;9.246;2023-02-13T18:10:10;95322.13;;;-1.28;100.00
71057;BME280;58380;48.312;9.246;2023-02-13T18:12:39;95313.78;;;-1.22;100.00
71057;BME280;58380;48.312;9.246;2023-02-13T18:15:04;95305.19;;;-1.22;100.00
71057;BME280;58380;48.312;9.246;2023-02-13T18:17:31;95316.91;;;-1.18;100.00
71057;BME280;58380;48.312;9.246;2023-02-13T18:19:56;95310.22;;;-1.21;100.00
71057;BME280;58380;48.312;9.246;2023-02-13T18:22:22;95271.50;;;-1.50;100.00
71057;BME280;58380;48.312;9.246;2023-02-13T18:24:49;95182.34;;;-2.03;100.00
71057;BME280;58380;48.312;9.246;2023-02-13T18:27:15;95310.63;;;-1.16;100.00
71057;BME280;58380;48.312;9.246;2023-02-13T18:29:41;95287.34;;;-1.25;100.00
71057;BME280;58380;48.312;9.246;2023-02-13T18:32:08;95314.66;;;-1.03;100.00
71057;BME280;58380;48.312;9.246;2023-02-13T18:34:36;95320.94;;;-1.06;100.00
71057;BME280;58380;48.312;9.246;2023-02-13T18:37:03;95289.38;;;-1.19;100.00
71057;BME280;58380;48.312;9.246;2023-02-13T18:39:30;95311.75;;;-1.00;100.00
71057;BME280;58380;48.312;9.246;2023-02-13T18:41:56;95306.56;;;-1.00;100.00
71057;BME280;58380;48.312;9.246;2023-02-13T18:44:21;95300.50;;;-1.09;100.00
71057;BME280;58380;48.312;9.246;2023-02-13T18:46:46;95283.94;;;-1.26;100.00
71057;BME280;58380;48.312;9.246;2023-02-13T18:49:12;95292.69;;;-1.27;100.00
71057;BME280;58380;48.312;9.246;2023-02-13T18:51:38;95244.03;;;-1.61;100.00
71057;BME280;58380;48.312;9.246;2023-02-13T18:54:04;95326.41;;;-1.09;100.00
71057;BME280;58380;48.312;9.246;2023-02-13T18:56:29;95313.88;;;-1.14;100.00
71057;BME280;58380;48.312;9.246;2023-02-13T18:58:55;95329.75;;;-0.99;100.00
71057;BME280;58380;48.312;9.246;2023-02-13T19:01:20;95303.56;;;-1.23;100.00
71057;BME280;58380;48.312;9.246;2023-02-13T19:03:48;95327.22;;;-1.09;100.00
71057;BME280;58380;48.312;9.246;2023-02-13T19:06:17;95312.31;;;-1.24;100.00
71057;BME280;58380;48.312;9.246;2023-02-13T19:08:45;95317.38;;;-1.33;100.00
71057;BME280;58380;48.312;9.246;2023-02-13T19:11:13;95296.59;;;-1.50;100.00
71057;BME280;58380;48.312;9.246;2023-02-13T19:13:42;95329.59;;;-1.25;100.00
71057;BME280;58380;48.312;9.246;2023-02-13T19:16:14;95312.47;;;-1.36;100.00
71057;BME280;58380;48.312;9.246;2023-02-13T19:18:43;95298.22;;;-1.49;100.00
71057;BME280;58380;48.312;9.246;2023-02-13T19:21:14;95319.34;;;-1.44;100.00
71057;BME280;58380;48.312;9.246;2023-02-13T19:23:40;95310.88;;;-1.46;100.00
71057;BME280;58380;48.312;9.246;2023-02-13T19:26:07;95308.56;;;-1.40;100.00
71057;BME280;58380;48.312;9.246;2023-02-13T19:28:38;95316.31;;;-1.40;100.00
71057;BME280;58380;48.312;9.246;2023-02-13T19:31:05;95325.44;;;-1.36;100.00
71057;BME280;58380;48.312;9.246;2023-02-13T19:33:33;95317.13;;;-1.39;100.00
71057;BME280;58380;48.312;9.246;2023-02-13T19:36:00;95288.72;;;-1.59;100.00
71057;BME280;58380;48.312;9.246;2023-02-13T19:38:27;95320.06;;;-1.52;100.00
71057;BME280;58380;48.312;9.246;2023-02-13T19:40:52;95314.59;;;-1.49;100.00
71057;BME280;58380;48.312;9.246;2023-02-13T19:43:19;95312.53;;;-1.55;100.00
71057;BME280;58380;48.312;9.246;2023-02-13T19:45:45;95319.78;;;-1.59;100.00
71057;BME280;58380;48.312;9.246;2023-02-13T19:48:11;95308.38;;;-1.76;100.00
71057;BME280;58380;48.312;9.246;2023-02-13T19:50:36;95318.34;;;-1.81;100.00
71057;BME280;58380;48.312;9.246;2023-02-13T19:53:03;95324.06;;;-1.77;100.00
71057;BME280;58380;48.312;9.246;2023-02-13T19:55:30;95316.56;;;-1.80;100.00
71057;BME280;58380;48.312;9.246;2023-02-13T19:57:55;95312.94;;;-1.97;100.00
71057;BME280;58380;48.312;9.246;2023-02-13T20:00:21;95309.66;;;-1.89;100.00
71057;BME280;58380;48.312;9.246;2023-02-13T20:02:47;95324.06;;;-1.77;100.00
71057;BME280;58380;48.312;9.246;2023-02-13T20:05:13;95316.34;;;-1.87;100.00
71057;BME280;58380;48.312;9.246;2023-02-13T20:07:39;95305.72;;;-1.93;100.00
71057;BME280;58380;48.312;9.246;2023-02-13T20:10:05;95319.31;;;-1.82;100.00
71057;BME280;58380;48.312;9.246;2023-02-13T20:12:33;95323.53;;;-1.81;100.00
71057;BME280;58380;48.312;9.246;2023-02-13T20:14:59;95325.56;;;-1.75;100.00
71057;BME280;58380;48.312;9.246;2023-02-13T20:17:24;95332.75;;;-1.68;100.00
71057;BME280;58380;48.312;9.246;2023-02-13T20:19:50;95319.28;;;-1.72;100.00
71057;BME280;58380;48.312;9.246;2023-02-13T20:22:16;95312.19;;;-1.70;100.00
71057;BME280;58380;48.312;9.246;2023-02-13T20:24:43;95298.31;;;-1.79;100.00
71057;BME280;58380;48.312;9.246;2023-02-13T20:27:11;95294.34;;;-1.73;100.00
71057;BME280;58380;48.312;9.246;2023-02-13T20:29:37;95321.28;;;-1.56;100.00
71057;BME280;58380;48.312;9.246;2023-02-13T20:32:03;95318.03;;;-1.68;100.00
71057;BME280;58380;48.312;9.246;2023-02-13T20:52:35;95295.84;;;-1.80;100.00
71057;BME280;58380;48.312;9.246;2023-02-13T20:55:01;95297.25;;;-1.86;100.00
71057;BME280;58380;48.312;9.246;2023-02-13T20:57:27;95263.13;;;-2.09;100.00
71057;BME280;58380;48.312;9.246;2023-02-13T20:59:52;95299.28;;;-1.80;100.00
71057;BME280;58380;48.312;9.246;2023-02-13T21:02:18;95263.09;;;-1.99;100.00
71057;BME280;58380;48.312;9.246;2023-02-13T21:04:45;95311.97;;;-1.86;100.00
71057;BME280;58380;48.312;9.246;2023-02-13T21:07:11;95304.91;;;-1.94;100.00
71057;BME280;58380;48.312;9.246;2023-02-13T21:09:36;95312.41;;;-2.01;100.00
71057;BME280;58380;48.312;9.246;2023-02-13T21:12:03;95291.03;;;-2.12;100.00
71057;BME280;58380;48.312;9.246;2023-02-13T21:14:28;95304.81;;;-2.12;100.00
71057;BME280;58380;48.312;9.246;2023-02-13T21:16:54;95313.78;;;-2.06;100.00
71057;BME280;58380;48.312;9.246;2023-02-13T21:19:19;95266.81;;;-2.21;100.00
71057;BME280;58380;48.312;9.246;2023-02-13T21:21:45;95294.84;;;-2.07;100.00
71057;BME280;58380;48.312;9.246;2023-02-13T21:24:18;95275.28;;;-2.29;100.00
71057;BME280;58380;48.312;9.246;2023-02-13T21:26:47;95298.94;;;-2.14;100.00
71057;BME280;58380;48.312;9.246;2023-02-13T21:29:16;95286.81;;;-2.23;100.00
71057;BME280;58380;48.312;9.246;2023-02-13T21:31:43;95298.53;;;-2.09;100.00
71057;BME280;58380;48.312;9.246;2023-02-13T21:34:15;95252.53;;;-2.35;100.00
